Terminal Aerodrome Forecast
Issued by NWS

Home | Current Version | Previous Version | Text Only | Print | Product List | Glossary On
Versions: 1 2 3 4 5 6 7 8 9 10 11 12
000
FTUS42 TJSJ 041739
TAFJMZ
TAF
TJMZ 041739Z 0418/0518 25008KT P6SM VCTS BKN030CB
      TEMPO 0418/0421 -SHRA BKN030
     FM042230 06005KT P6SM FEW030
     FM051630 23010KT P6SM VCTS SCT025CB BKN040
      AMD NOT SKED=

USA.gov is the U.S. government's official web portal to all federal, state and local government web resources and services.